Time;durP1;ratioP1;P1;durP2;ratioP2;P2;SDS_P1;SDS_P2;PMS_P1;PMS_P2;Temp;Humidity;BMP_temperature;BMP_pressure;BME280_temperature;BME280_humidity;BME280_pressure;Samples;Min_cycle;Max_cycle;Signal;HPM_P1;HPM_P2
2021/12/19 00:01:34;;;;;;;39.83;18.80;;;3.50;87.70;;;;;;5113254;28;20294;-58
2021/12/19 00:04:15;;;;;;;46.88;20.52;;;3.20;88.20;;;;;;5112048;28;20202;-58
2021/12/19 00:09:28;;;;;;;41.58;18.98;;;3.30;89.20;;;;;;5113635;28;20221;-61
2021/12/19 00:11:56;;;;;;;47.17;21.30;;;3.40;88.40;;;;;;5113121;28;20655;-57
2021/12/19 00:14:24;;;;;;;44.20;20.75;;;3.40;88.50;;;;;;5113124;28;20288;-56
2021/12/19 00:16:51;;;;;;;38.47;18.83;;;3.60;87.70;;;;;;5113160;28;20290;-59
2021/12/19 00:19:18;;;;;;;46.40;20.25;;;3.80;87.20;;;;;;5111844;28;20195;-58
2021/12/19 00:21:45;;;;;;;46.80;21.45;;;3.60;87.10;;;;;;5113104;28;20203;-57
2021/12/19 00:24:13;;;;;;;45.28;19.30;;;3.70;87.50;;;;;;5113187;28;20282;-59
2021/12/19 00:26:40;;;;;;;42.95;20.58;;;3.90;87.30;;;;;;5112979;28;20235;-57
2021/12/19 00:29:07;;;;;;;44.53;20.60;;;4.00;86.80;;;;;;5113000;28;20745;-59
2021/12/19 00:31:37;;;;;;;49.40;21.67;;;4.00;86.30;;;;;;5113009;28;20199;-60
2021/12/19 00:34:05;;;;;;;44.42;21.02;;;3.90;86.60;;;;;;5111653;28;20210;-57
2021/12/19 00:36:32;;;;;;;39.58;20.48;;;4.00;86.40;;;;;;5112980;28;20221;-58
2021/12/19 00:38:59;;;;;;;52.15;23.40;;;4.10;86.30;;;;;;5113104;28;20203;-59
2021/12/19 00:41:26;;;;;;;47.58;23.25;;;4.20;86.00;;;;;;5113041;28;20207;-56
2021/12/19 00:43:55;;;;;;;46.72;20.50;;;4.00;85.40;;;;;;5112871;28;20719;-59
2021/12/19 00:46:24;;;;;;;38.90;19.33;;;3.90;85.80;;;;;;5112838;28;20308;-58
2021/12/19 00:48:55;;;;;;;46.50;20.15;;;3.70;86.60;;;;;;5111473;28;20558;-58
2021/12/19 00:51:24;;;;;;;43.42;20.40;;;3.60;86.90;;;;;;5112775;28;20207;-58
2021/12/19 00:53:53;;;;;;;45.42;20.80;;;3.70;87.30;;;;;;5112672;28;20256;-58
2021/12/19 00:56:20;;;;;;;39.22;18.65;;;3.90;87.20;;;;;;5112788;28;20234;-58
2021/12/19 00:58:47;;;;;;;42.83;19.33;;;3.90;86.20;;;;;;5116216;28;20207;-59
2021/12/19 01:01:15;;;;;;;46.30;20.30;;;3.80;86.10;;;;;;5116654;28;20206;-58
2021/12/19 01:03:44;;;;;;;54.05;21.85;;;3.50;86.70;;;;;;5115405;28;20230;-57
2021/12/19 01:06:16;;;;;;;48.08;20.70;;;3.60;87.80;;;;;;5116646;28;20227;-58
2021/12/19 01:08:42;;;;;;;49.72;21.63;;;3.80;87.60;;;;;;5116806;28;20203;-57
2021/12/19 01:11:10;;;;;;;40.28;21.38;;;3.90;87.20;;;;;;5116672;28;20246;-57
2021/12/19 01:13:36;;;;;;;49.88;22.85;;;3.90;86.70;;;;;;5116637;27;20290;-57
2021/12/19 01:16:04;;;;;;;48.38;21.65;;;3.90;86.00;;;;;;5116504;28;20205;-57
2021/12/19 01:18:31;;;;;;;108.22;26.20;;;3.70;86.70;;;;;;5115072;28;20597;-57
2021/12/19 01:20:58;;;;;;;141.73;27.15;;;3.40;87.10;;;;;;5116312;28;20195;-58
2021/12/19 01:23:26;;;;;;;49.95;20.38;;;3.20;87.90;;;;;;5116388;28;20210;-58
2021/12/19 01:25:53;;;;;;;52.42;20.90;;;3.00;88.60;;;;;;5116240;28;20223;-57
2021/12/19 01:28:20;;;;;;;83.65;22.13;;;2.90;89.80;;;;;;5116308;28;20286;-58
2021/12/19 01:30:47;;;;;;;46.90;20.52;;;2.80;90.30;;;;;;5116252;28;20316;-58
2021/12/19 01:33:14;;;;;;;46.72;20.23;;;2.90;91.00;;;;;;5115792;28;20210;-57
2021/12/19 01:35:41;;;;;;;40.88;18.45;;;2.90;90.30;;;;;;5115539;28;20202;-58
2021/12/19 01:38:08;;;;;;;46.35;20.00;;;2.90;90.50;;;;;;5116100;28;20645;-58
2021/12/19 01:40:36;;;;;;;61.10;20.30;;;3.00;90.60;;;;;;5115912;28;20195;-59
2021/12/19 01:43:04;;;;;;;50.85;17.98;;;2.90;90.10;;;;;;5116160;28;20294;-57
2021/12/19 01:45:34;;;;;;;54.22;19.75;;;2.80;90.40;;;;;;5116060;28;20223;-57
2021/12/19 01:48:03;;;;;;;36.17;17.15;;;2.90;90.80;;;;;;5115981;28;20743;-59
2021/12/19 01:50:33;;;;;;;46.03;18.25;;;3.00;90.30;;;;;;5114431;28;20570;-57
2021/12/19 01:53:00;;;;;;;39.00;16.20;;;3.10;89.90;;;;;;5115804;28;20299;-57
2021/12/19 01:55:28;;;;;;;37.63;16.52;;;3.10;89.20;;;;;;5115777;28;20209;-57
2021/12/19 01:57:56;;;;;;;37.72;16.35;;;2.90;89.30;;;;;;5115741;27;20214;-60
2021/12/19 02:00:26;;;;;;;35.42;16.00;;;2.50;90.60;;;;;;5115730;28;20294;-57
2021/12/19 02:02:54;;;;;;;52.33;18.33;;;2.40;91.70;;;;;;5115454;28;20203;-58
2021/12/19 02:05:21;;;;;;;40.47;17.58;;;2.40;92.30;;;;;;5114158;28;20298;-58
2021/12/19 02:07:49;;;;;;;41.00;17.85;;;2.20;92.60;;;;;;5115635;28;20200;-58
2021/12/19 02:10:19;;;;;;;36.28;16.55;;;2.30;93.10;;;;;;5114700;28;20199;-58
2021/12/19 02:12:47;;;;;;;52.17;19.38;;;2.30;93.10;;;;;;5115280;28;20199;-58
2021/12/19 02:15:19;;;;;;;42.33;17.73;;;2.40;93.10;;;;;;5115315;28;20210;-58
2021/12/19 02:17:46;;;;;;;41.92;17.35;;;2.70;93.10;;;;;;5115706;28;20206;-57
2021/12/19 02:20:15;;;;;;;51.40;18.55;;;3.00;92.40;;;;;;5113883;28;20206;-57
2021/12/19 02:22:42;;;;;;;42.35;17.75;;;3.10;91.50;;;;;;5115210;28;20206;-57
2021/12/19 02:25:10;;;;;;;42.67;18.40;;;3.20;90.60;;;;;;5115264;28;20221;-57
2021/12/19 02:27:38;;;;;;;39.15;16.85;;;3.20;89.90;;;;;;5115091;28;20241;-57
2021/12/19 02:30:06;;;;;;;89.53;22.02;;;3.30;90.00;;;;;;5115130;28;20283;-58
2021/12/19 02:32:34;;;;;;;210.45;34.50;;;3.10;89.30;;;;;;5115093;28;20203;-59
2021/12/19 02:35:05;;;;;;;152.07;28.38;;;2.90;89.80;;;;;;5113686;28;20253;-58
2021/12/19 02:38:05;;;;;;;70.05;22.58;;;2.80;89.90;;;;;;5115205;28;20203;-58
2021/12/19 02:48:09;;;;;;;47.17;19.25;;;2.60;90.50;;;;;;5114842;28;20294;-59
2021/12/19 02:48:56;;;;;;;40.40;16.05;;;2.60;93.30;;;;;;5113363;28;20214;-57
2021/12/19 02:51:24;;;;;;;43.63;16.55;;;2.70;92.00;;;;;;5114877;28;20714;-58
2021/12/19 02:53:52;;;;;;;41.88;14.82;;;2.90;92.10;;;;;;5114537;28;20204;-57
2021/12/19 02:56:21;;;;;;;33.65;14.77;;;3.10;91.30;;;;;;5114573;28;20210;-58
2021/12/19 02:58:48;;;;;;;27.05;12.85;;;3.00;89.90;;;;;;5114563;28;20196;-57
2021/12/19 03:01:18;;;;;;;31.40;13.77;;;2.80;89.80;;;;;;5114307;28;20298;-57
2021/12/19 03:03:45;;;;;;;118.85;21.88;;;2.80;91.00;;;;;;5113087;28;20624;-61
2021/12/19 03:06:12;;;;;;;23.80;11.85;;;2.70;90.70;;;;;;5114320;28;20237;-57
2021/12/19 03:08:44;;;;;;;26.08;11.70;;;2.70;90.60;;;;;;5114410;28;20207;-58
2021/12/19 03:19:48;;;;;;;30.52;12.65;;;2.30;92.90;;;;;;5069905;28;20193;-58
2021/12/19 03:22:15;;;;;;;28.08;11.30;;;2.30;92.90;;;;;;5103730;28;20203;-57
2021/12/19 03:24:41;;;;;;;24.55;11.55;;;2.50;93.20;;;;;;5113993;28;20287;-60
2021/12/19 03:27:10;;;;;;;32.97;13.02;;;2.70;92.90;;;;;;5113822;28;20233;-57
2021/12/19 03:29:37;;;;;;;23.95;11.02;;;2.90;92.10;;;;;;5114089;28;20210;-56
2021/12/19 03:32:04;;;;;;;24.35;10.50;;;2.90;91.10;;;;;;5113931;28;20238;-60
2021/12/19 03:34:32;;;;;;;26.58;10.85;;;3.10;91.00;;;;;;5112338;28;20209;-58
2021/12/19 03:36:59;;;;;;;25.85;10.40;;;3.10;89.70;;;;;;5113957;28;20203;-58
2021/12/19 03:39:34;;;;;;;40.92;13.20;;;2.70;89.30;;;;;;5113860;28;20207;-62
2021/12/19 03:42:01;;;;;;;93.32;18.38;;;2.60;90.70;;;;;;5114043;28;20209;-57
2021/12/19 03:44:29;;;;;;;22.80;10.40;;;2.30;90.60;;;;;;5113724;28;20233;-57
2021/12/19 03:46:57;;;;;;;22.92;9.73;;;2.40;91.10;;;;;;5113482;28;20716;-59
2021/12/19 03:49:24;;;;;;;22.98;10.57;;;2.40;91.10;;;;;;5112407;28;20204;-59
2021/12/19 03:51:51;;;;;;;22.95;10.10;;;2.50;91.20;;;;;;5113658;28;20229;-57
2021/12/19 03:54:18;;;;;;;23.58;10.95;;;2.50;90.70;;;;;;5113579;28;20231;-58
2021/12/19 03:56:45;;;;;;;23.90;9.90;;;2.30;91.00;;;;;;5113617;28;20234;-57
2021/12/19 03:59:11;;;;;;;24.30;12.25;;;2.50;91.80;;;;;;5113517;28;20290;-61
2021/12/19 04:01:42;;;;;;;26.05;11.10;;;2.50;90.90;;;;;;5113488;28;20229;-57
2021/12/19 04:04:09;;;;;;;31.67;11.65;;;2.40;90.90;;;;;;5112187;28;20200;-61
2021/12/19 04:06:36;;;;;;;27.35;11.27;;;2.50;91.10;;;;;;5113410;28;20650;-58
2021/12/19 04:09:03;;;;;;;25.45;10.80;;;2.70;91.20;;;;;;5113520;28;20230;-57
2021/12/19 04:11:30;;;;;;;23.75;10.75;;;2.90;90.70;;;;;;5113571;28;20553;-57
2021/12/19 04:13:58;;;;;;;23.38;11.43;;;3.00;89.80;;;;;;5113390;28;20562;-58
2021/12/19 04:16:25;;;;;;;21.92;10.00;;;3.10;89.50;;;;;;5113253;28;20200;-57
2021/12/19 04:18:53;;;;;;;22.58;10.13;;;3.20;89.10;;;;;;5111961;28;20204;-57
2021/12/19 04:21:20;;;;;;;24.15;10.90;;;3.10;88.50;;;;;;5113531;28;20696;-61
2021/12/19 04:23:47;;;;;;;24.00;11.18;;;2.90;88.30;;;;;;5113301;28;20296;-57
2021/12/19 04:26:13;;;;;;;21.25;10.50;;;2.90;89.30;;;;;;5113163;28;20582;-57
2021/12/19 04:28:41;;;;;;;25.05;10.65;;;3.10;89.40;;;;;;5113131;28;20553;-57
2021/12/19 04:31:08;;;;;;;24.80;11.32;;;2.90;88.70;;;;;;5113182;28;20207;-58
2021/12/19 04:33:38;;;;;;;29.70;11.48;;;2.80;88.80;;;;;;5114930;28;20294;-58
2021/12/19 04:36:08;;;;;;;106.93;18.83;;;2.60;89.20;;;;;;5117305;28;20718;-57
2021/12/19 04:55:42;;;;;;;35.63;11.50;;;2.60;91.50;;;;;;5099038;28;20669;-57
2021/12/19 04:58:47;;;;;;;34.47;12.15;;;2.80;90.60;;;;;;5116826;28;20569;-57
2021/12/19 05:01:26;;;;;;;33.72;11.70;;;2.80;89.50;;;;;;5116769;28;20205;-57
2021/12/19 05:04:06;;;;;;;28.38;10.65;;;3.00;89.50;;;;;;5115435;28;20199;-58
2021/12/19 05:06:51;;;;;;;29.20;11.98;;;3.10;89.20;;;;;;5116707;28;20575;-58
2021/12/19 05:14:52;;;;;;;30.17;11.43;;;3.00;88.50;;;;;;5116920;28;20283;-57
2021/12/19 05:17:23;;;;;;;56.90;15.45;;;3.00;89.10;;;;;;5116854;28;20199;-57
2021/12/19 05:20:04;;;;;;;76.40;15.65;;;2.90;88.60;;;;;;5115229;28;20661;-58
2021/12/19 05:22:34;;;;;;;21.77;9.88;;;2.70;88.60;;;;;;5116451;28;20195;-58
2021/12/19 05:25:14;;;;;;;44.40;13.57;;;2.70;89.50;;;;;;5116450;28;20565;-57
2021/12/19 05:27:42;;;;;;;64.85;14.63;;;2.60;89.50;;;;;;5116293;28;20242;-57
2021/12/19 05:30:10;;;;;;;31.70;12.77;;;2.60;89.80;;;;;;5116322;28;20210;-57
2021/12/19 05:32:37;;;;;;;25.45;11.77;;;2.60;89.30;;;;;;5116315;28;20249;-58
2021/12/19 05:35:05;;;;;;;50.97;13.35;;;2.60;89.70;;;;;;5114883;28;20290;-57
2021/12/19 05:45:46;;;;;;;30.17;10.93;;;1.90;91.10;;;;;;5115614;28;20265;-57
2021/12/19 05:48:13;;;;;;;26.90;10.80;;;1.80;91.40;;;;;;5115767;28;20233;-58
2021/12/19 05:50:40;;;;;;;39.92;13.82;;;1.80;91.80;;;;;;5115279;28;20290;-58
2021/12/19 05:53:07;;;;;;;113.38;21.90;;;1.80;92.10;;;;;;5115928;28;20207;-57
2021/12/19 05:55:35;;;;;;;27.70;10.90;;;1.80;91.80;;;;;;5115855;28;20290;-58
2021/12/19 05:58:02;;;;;;;52.58;13.20;;;1.70;91.60;;;;;;5115745;28;20207;-62
2021/12/19 06:00:29;;;;;;;61.75;14.23;;;1.70;91.80;;;;;;5115572;28;20210;-58
2021/12/19 06:02:56;;;;;;;31.05;11.43;;;1.70;92.10;;;;;;5115644;28;20202;-57
2021/12/19 06:05:23;;;;;;;20.80;9.52;;;1.70;91.60;;;;;;5114327;28;20199;-59
2021/12/19 06:07:50;;;;;;;77.50;16.23;;;1.80;91.60;;;;;;5115561;28;20231;-58
2021/12/19 06:10:17;;;;;;;96.15;17.15;;;1.70;91.40;;;;;;5115508;28;20303;-59
2021/12/19 06:12:45;;;;;;;42.03;10.95;;;1.50;91.50;;;;;;5115786;28;20202;-60
2021/12/19 06:15:13;;;;;;;26.50;10.25;;;1.40;91.70;;;;;;5115280;28;20209;-61
2021/12/19 06:17:42;;;;;;;23.33;9.48;;;1.30;92.30;;;;;;5115412;28;20203;-60
2021/12/19 06:20:10;;;;;;;27.65;12.07;;;1.30;92.70;;;;;;5114001;28;20290;-58
2021/12/19 06:22:37;;;;;;;28.83;11.52;;;1.30;93.00;;;;;;5115164;28;20657;-58
2021/12/19 06:25:05;;;;;;;21.88;10.50;;;1.30;92.90;;;;;;5115165;28;20199;-58
2021/12/19 06:27:32;;;;;;;31.05;10.70;;;1.30;93.10;;;;;;5115022;28;20219;-58
2021/12/19 06:30:00;;;;;;;20.85;9.07;;;1.40;93.00;;;;;;5115153;28;20609;-58
2021/12/19 06:32:28;;;;;;;18.60;8.15;;;1.40;92.70;;;;;;5115084;28;20654;-60
2021/12/19 06:34:54;;;;;;;21.52;10.07;;;1.20;92.00;;;;;;5113846;27;20295;-59
2021/12/19 06:37:21;;;;;;;37.75;12.00;;;1.20;92.90;;;;;;5114999;28;20203;-58
2021/12/19 06:39:48;;;;;;;17.05;8.60;;;1.30;93.20;;;;;;5115268;28;20210;-57
2021/12/19 06:42:15;;;;;;;17.85;8.25;;;1.30;92.60;;;;;;5114796;28;20214;-58
2021/12/19 06:44:43;;;;;;;79.25;14.65;;;1.20;92.40;;;;;;5114695;28;20310;-60
2021/12/19 06:47:11;;;;;;;45.17;12.25;;;1.20;92.70;;;;;;5114660;28;20701;-58
2021/12/19 06:49:38;;;;;;;17.30;8.10;;;1.10;92.50;;;;;;5113477;28;20211;-58
2021/12/19 06:52:05;;;;;;;73.30;14.05;;;1.10;92.60;;;;;;5114786;28;20238;-59
2021/12/19 06:54:32;;;;;;;30.35;11.00;;;1.10;92.60;;;;;;5114680;28;20209;-58
2021/12/19 06:56:59;;;;;;;103.10;15.65;;;1.20;92.80;;;;;;5114278;28;20213;-59
2021/12/19 06:59:25;;;;;;;17.42;8.50;;;1.20;92.70;;;;;;5114536;28;20294;-58
2021/12/19 07:01:52;;;;;;;28.70;9.32;;;1.10;92.50;;;;;;5114575;28;20214;-64
2021/12/19 07:04:20;;;;;;;33.65;10.23;;;1.00;92.60;;;;;;5113276;28;20200;-60
2021/12/19 07:06:47;;;;;;;21.88;8.35;;;0.90;92.90;;;;;;5114420;28;20209;-60
2021/12/19 07:09:14;;;;;;;18.00;8.20;;;0.90;93.20;;;;;;5114413;28;20222;-64
2021/12/19 07:11:42;;;;;;;18.65;7.90;;;0.90;93.50;;;;;;5114276;28;20234;-58
2021/12/19 07:14:09;;;;;;;21.15;8.77;;;1.00;94.20;;;;;;5114305;28;20204;-59
2021/12/19 07:16:36;;;;;;;19.05;7.32;;;1.20;94.50;;;;;;5114331;28;20196;-58
2021/12/19 07:19:03;;;;;;;12.02;7.22;;;1.50;93.90;;;;;;5113158;27;20203;-59
2021/12/19 07:21:31;;;;;;;13.18;6.35;;;1.50;92.50;;;;;;5114259;28;20569;-58
2021/12/19 07:23:58;;;;;;;14.95;7.50;;;1.40;92.20;;;;;;5114157;28;20206;-58
2021/12/19 07:26:25;;;;;;;12.10;5.95;;;1.40;92.90;;;;;;5114092;28;20195;-62
2021/12/19 07:28:52;;;;;;;12.27;5.90;;;1.40;92.40;;;;;;5114059;28;20268;-58
2021/12/19 07:31:20;;;;;;;13.43;6.35;;;1.30;92.30;;;;;;5114084;28;20633;-58
2021/12/19 07:33:47;;;;;;;15.68;5.85;;;1.40;92.60;;;;;;5112629;28;20256;-61
2021/12/19 07:36:17;;;;;;;10.48;5.47;;;1.50;92.60;;;;;;5113818;28;20199;-57
2021/12/19 07:38:53;;;;;;;13.27;5.30;;;1.30;91.90;;;;;;5114095;28;20199;-60
2021/12/19 07:41:20;;;;;;;9.13;5.22;;;1.00;92.70;;;;;;5113872;28;20674;-61
2021/12/19 07:43:47;;;;;;;8.85;4.97;;;1.00;93.90;;;;;;5113749;28;20606;-58
2021/12/19 07:46:14;;;;;;;11.50;5.13;;;1.10;94.40;;;;;;5113657;28;20720;-58
2021/12/19 07:48:41;;;;;;;6.93;4.72;;;1.30;94.30;;;;;;5112346;28;20237;-58
2021/12/19 07:51:08;;;;;;;10.38;6.20;;;1.50;94.00;;;;;;5113634;28;20203;-60
2021/12/19 07:53:35;;;;;;;10.73;5.35;;;1.60;92.80;;;;;;5113624;28;20282;-58
2021/12/19 07:56:03;;;;;;;8.82;5.20;;;1.70;92.40;;;;;;5113583;28;20234;-58
2021/12/19 07:58:30;;;;;;;19.92;6.55;;;1.60;91.80;;;;;;5113477;28;20207;-60
2021/12/19 08:00:57;;;;;;;10.13;5.50;;;1.40;92.00;;;;;;5113805;28;20284;-58
2021/12/19 08:03:24;;;;;;;17.25;5.18;;;1.40;92.50;;;;;;5112108;28;20727;-58
2021/12/19 08:05:51;;;;;;;16.92;6.75;;;1.50;92.50;;;;;;5113419;28;20696;-58
2021/12/19 08:08:25;;;;;;;17.83;6.97;;;1.40;91.90;;;;;;5112650;28;20586;-64
2021/12/19 08:13:38;;;;;;;11.60;5.60;;;1.30;92.90;;;;;;5113891;28;20665;-58
2021/12/19 08:16:05;;;;;;;7.40;4.60;;;1.70;93.30;;;;;;5113303;28;20626;-58
2021/12/19 08:18:32;;;;;;;11.60;6.00;;;2.00;93.20;;;;;;5111994;28;20199;-57
2021/12/19 08:20:59;;;;;;;10.73;5.35;;;2.20;92.60;;;;;;5113452;28;20223;-58
2021/12/19 08:23:26;;;;;;;10.48;5.90;;;2.40;91.70;;;;;;5113290;28;20564;-56
2021/12/19 08:25:53;;;;;;;9.93;4.65;;;2.40;90.80;;;;;;5113307;28;20776;-56
2021/12/19 08:28:20;;;;;;;7.60;4.75;;;2.40;90.40;;;;;;5113392;28;20234;-57
2021/12/19 08:30:48;;;;;;;9.05;4.40;;;2.20;89.90;;;;;;5113371;28;20206;-57
2021/12/19 08:33:15;;;;;;;10.80;5.00;;;2.00;90.50;;;;;;5112951;28;20306;-58
2021/12/19 08:35:42;;;;;;;7.13;4.60;;;2.00;91.40;;;;;;5112704;28;20664;-58
2021/12/19 08:38:08;;;;;;;7.30;4.00;;;2.20;91.90;;;;;;5113216;28;20230;-58
2021/12/19 08:40:37;;;;;;;8.20;4.68;;;2.40;91.70;;;;;;5113217;28;20203;-58
2021/12/19 08:43:05;;;;;;;10.75;4.78;;;2.60;91.20;;;;;;5113038;28;20230;-58
2021/12/19 08:45:32;;;;;;;7.13;4.55;;;2.70;90.60;;;;;;5113030;28;20223;-57
2021/12/19 08:48:00;;;;;;;8.93;4.45;;;2.70;89.60;;;;;;5112995;28;20249;-58
2021/12/19 08:50:27;;;;;;;9.15;5.38;;;2.60;89.20;;;;;;5111792;28;20207;-57
2021/12/19 08:52:54;;;;;;;9.20;4.60;;;2.40;89.20;;;;;;5113030;28;20207;-57
2021/12/19 08:55:21;;;;;;;6.90;4.15;;;2.10;90.30;;;;;;5113162;28;20294;-57
2021/12/19 08:57:49;;;;;;;10.10;4.50;;;2.00;90.30;;;;;;5113017;28;20210;-58
2021/12/19 09:00:18;;;;;;;14.25;4.50;;;1.90;91.20;;;;;;5113443;27;20273;-57
2021/12/19 09:02:47;;;;;;;28.85;6.85;;;1.90;91.20;;;;;;5112998;28;20265;-57
2021/12/19 09:05:15;;;;;;;6.43;3.95;;;1.80;91.50;;;;;;5111599;28;20286;-58
2021/12/19 09:07:42;;;;;;;6.15;3.80;;;1.80;91.70;;;;;;5112862;28;20306;-58
2021/12/19 09:10:11;;;;;;;10.90;4.90;;;1.80;91.80;;;;;;5112839;28;20203;-58
2021/12/19 09:12:38;;;;;;;6.30;3.80;;;1.80;92.00;;;;;;5112731;28;20207;-58
2021/12/19 09:15:06;;;;;;;8.70;4.20;;;1.80;91.90;;;;;;5112803;28;20560;-57
2021/12/19 09:17:33;;;;;;;6.70;4.20;;;1.90;92.10;;;;;;5112878;28;20226;-59
2021/12/19 09:20:00;;;;;;;6.60;3.97;;;2.00;92.20;;;;;;5114916;28;20230;-58
2021/12/19 09:22:28;;;;;;;6.80;4.30;;;2.00;91.40;;;;;;5116598;27;20199;-58
2021/12/19 09:24:55;;;;;;;8.05;4.25;;;2.10;91.30;;;;;;5116392;28;20199;-59
2021/12/19 09:27:22;;;;;;;9.50;4.30;;;2.00;91.30;;;;;;5116344;28;20654;-58
2021/12/19 09:29:49;;;;;;;7.07;4.00;;;2.10;91.60;;;;;;5116321;28;20202;-58
2021/12/19 09:32:16;;;;;;;6.10;3.60;;;2.30;91.10;;;;;;5116356;28;20284;-60
2021/12/19 09:34:43;;;;;;;6.05;3.50;;;2.20;90.40;;;;;;5115008;28;20202;-58
2021/12/19 09:37:09;;;;;;;5.25;3.47;;;2.10;90.40;;;;;;5116311;28;20214;-58
2021/12/19 09:39:38;;;;;;;5.35;3.80;;;2.00;90.60;;;;;;5116104;28;20205;-58
2021/12/19 09:42:09;;;;;;;6.63;3.65;;;2.10;91.30;;;;;;5116102;28;20203;-58
2021/12/19 09:44:37;;;;;;;6.30;3.30;;;2.10;91.10;;;;;;5116071;28;20231;-59
2021/12/19 09:47:05;;;;;;;6.18;3.45;;;2.00;91.30;;;;;;5116143;28;20203;-58
2021/12/19 09:49:34;;;;;;;5.47;3.42;;;2.00;91.90;;;;;;5114738;28;20262;-58
2021/12/19 09:52:05;;;;;;;4.72;3.22;;;1.90;91.90;;;;;;5115850;28;20607;-58
2021/12/19 09:54:32;;;;;;;6.10;3.65;;;2.10;92.80;;;;;;5115750;28;20557;-58
2021/12/19 09:57:01;;;;;;;6.97;4.07;;;2.30;92.60;;;;;;5115752;28;20195;-59
2021/12/19 09:59:27;;;;;;;7.00;4.20;;;2.40;92.10;;;;;;5115743;28;20210;-58
2021/12/19 10:01:55;;;;;;;6.05;3.80;;;2.50;91.50;;;;;;5115647;28;20294;-58
2021/12/19 10:04:34;;;;;;;7.38;3.92;;;2.30;90.10;;;;;;5114351;28;20202;-59
2021/12/19 10:07:08;;;;;;;13.10;4.95;;;2.10;90.60;;;;;;5115521;28;20202;-59
2021/12/19 10:09:36;;;;;;;6.00;3.60;;;2.10;90.80;;;;;;5115460;28;20227;-59
2021/12/19 10:12:35;;;;;;;5.57;3.72;;;2.10;90.70;;;;;;5115439;28;20556;-58
2021/12/19 10:15:04;;;;;;;5.82;3.88;;;2.00;91.20;;;;;;5115296;28;20199;-59
2021/12/19 10:17:31;;;;;;;4.07;3.17;;;2.00;91.30;;;;;;5115348;28;20202;-58
2021/12/19 10:20:01;;;;;;;5.97;3.45;;;2.10;91.60;;;;;;5113991;28;20203;-58
2021/12/19 10:22:30;;;;;;;4.70;3.33;;;2.10;91.50;;;;;;5115298;28;20260;-58
2021/12/19 10:24:59;;;;;;;4.43;3.13;;;2.00;91.20;;;;;;5115198;28;20204;-58
2021/12/19 10:27:38;;;;;;;5.47;4.00;;;2.00;91.70;;;;;;5115184;28;20304;-58
2021/12/19 10:30:12;;;;;;;6.25;4.00;;;2.10;92.20;;;;;;5114659;28;20290;-58
2021/12/19 10:32:54;;;;;;;4.13;3.40;;;2.10;91.90;;;;;;5115043;28;20238;-58
2021/12/19 10:35:23;;;;;;;4.43;3.10;;;2.10;92.40;;;;;;5113718;28;20203;-58
2021/12/19 10:37:49;;;;;;;3.70;3.28;;;2.20;92.40;;;;;;5115026;28;20278;-58
2021/12/19 10:40:16;;;;;;;3.63;3.30;;;2.20;91.30;;;;;;5114864;28;20203;-57
2021/12/19 10:42:53;;;;;;;3.83;3.45;;;2.30;91.70;;;;;;5114829;27;20553;-58
2021/12/19 10:45:32;;;;;;;5.38;3.60;;;2.50;92.40;;;;;;5114877;28;20203;-57
2021/12/19 10:48:28;;;;;;;7.55;4.38;;;2.60;92.10;;;;;;5114619;28;20199;-58
2021/12/19 10:51:00;;;;;;;5.25;3.42;;;2.70;91.00;;;;;;5114728;28;20282;-57
2021/12/19 10:53:30;;;;;;;5.30;3.60;;;2.50;90.60;;;;;;5114711;28;20632;-60
2021/12/19 10:55:58;;;;;;;5.93;4.25;;;2.20;90.70;;;;;;5114683;28;20239;-58
2021/12/19 10:58:37;;;;;;;5.55;4.22;;;2.10;91.50;;;;;;5114451;28;20235;-58
2021/12/19 11:01:08;;;;;;;5.43;3.95;;;2.30;91.70;;;;;;5114554;28;20215;-57
2021/12/19 11:03:41;;;;;;;4.85;3.25;;;2.50;91.70;;;;;;5113169;27;20280;-57
2021/12/19 11:06:26;;;;;;;5.10;3.95;;;2.30;90.60;;;;;;5114427;28;20282;-58
2021/12/19 11:08:54;;;;;;;5.05;4.07;;;2.30;90.30;;;;;;5114318;28;20227;-58
2021/12/19 11:11:41;;;;;;;4.93;3.50;;;2.30;90.00;;;;;;5114289;28;20205;-60
2021/12/19 11:14:11;;;;;;;4.80;3.38;;;2.10;90.00;;;;;;5114332;28;20203;-59
2021/12/19 11:16:38;;;;;;;7.90;4.20;;;1.90;90.40;;;;;;5114253;28;20203;-58
2021/12/19 11:19:06;;;;;;;5.97;3.70;;;1.90;91.30;;;;;;5113020;28;20199;-58
2021/12/19 11:21:35;;;;;;;6.22;4.75;;;2.00;91.00;;;;;;5113979;28;20200;-58
2021/12/19 11:24:05;;;;;;;6.95;4.97;;;2.10;91.40;;;;;;5113898;28;20199;-58
2021/12/19 11:26:32;;;;;;;7.70;5.20;;;2.10;90.90;;;;;;5114077;28;20210;-58
2021/12/19 11:28:59;;;;;;;8.23;6.03;;;2.40;91.60;;;;;;5113831;28;20231;-57
2021/12/19 11:31:31;;;;;;;7.25;4.20;;;2.60;91.30;;;;;;5113949;27;20199;-59
2021/12/19 11:34:20;;;;;;;8.73;5.25;;;2.50;89.90;;;;;;5112611;28;20532;-57
2021/12/19 11:36:52;;;;;;;8.18;4.65;;;2.60;90.30;;;;;;5113755;28;20203;-57
2021/12/19 11:39:20;;;;;;;4.78;3.75;;;2.70;91.00;;;;;;5114042;28;20535;-57
2021/12/19 11:42:05;;;;;;;12.05;6.47;;;2.90;90.50;;;;;;5112808;28;20203;-57
2021/12/19 11:44:35;;;;;;;5.75;4.45;;;3.00;89.50;;;;;;5113576;28;20235;-57
2021/12/19 11:47:09;;;;;;;6.18;3.83;;;3.00;88.50;;;;;;5113407;28;20196;-58
2021/12/19 11:49:36;;;;;;;7.43;3.90;;;2.90;88.80;;;;;;5112115;28;20230;-57
2021/12/19 11:52:30;;;;;;;7.60;4.72;;;3.00;89.40;;;;;;5113481;28;20306;-57
2021/12/19 11:55:30;;;;;;;9.10;5.15;;;2.90;88.20;;;;;;5077212;28;20199;-57
2021/12/19 11:58:16;;;;;;;9.05;5.25;;;2.60;88.60;;;;;;5113518;28;20206;-57
2021/12/19 12:00:50;;;;;;;6.80;4.40;;;2.50;89.40;;;;;;5113459;28;20206;-57
2021/12/19 12:03:33;;;;;;;5.72;4.28;;;2.40;89.90;;;;;;5113026;28;20238;-58
2021/12/19 12:06:26;;;;;;;6.25;4.00;;;2.20;89.40;;;;;;5113382;28;20234;-58
2021/12/19 12:09:27;;;;;;;4.78;3.58;;;2.10;90.40;;;;;;5113351;28;20231;-60
2021/12/19 12:12:34;;;;;;;8.07;4.30;;;2.00;90.70;;;;;;5113263;28;20231;-60
2021/12/19 12:15:08;;;;;;;8.13;4.35;;;1.90;91.30;;;;;;5113322;28;20229;-59
2021/12/19 12:17:47;;;;;;;10.60;5.40;;;1.80;91.60;;;;;;5113251;28;20604;-60
2021/12/19 12:20:20;;;;;;;6.97;4.72;;;1.80;91.90;;;;;;5111957;28;20199;-58
2021/12/19 12:22:55;;;;;;;7.80;4.70;;;1.90;92.50;;;;;;5113077;28;20276;-59
2021/12/19 12:25:34;;;;;;;5.35;4.47;;;2.20;92.70;;;;;;5113069;28;20256;-58
2021/12/19 12:28:06;;;;;;;7.55;4.35;;;2.50;92.20;;;;;;5113063;28;20206;-57
2021/12/19 12:30:37;;;;;;;7.10;4.30;;;2.70;91.90;;;;;;5113233;28;20260;-58
2021/12/19 12:33:06;;;;;;;7.80;4.70;;;3.00;91.20;;;;;;5113082;28;20195;-56
2021/12/19 12:35:38;;;;;;;8.95;5.40;;;3.20;90.10;;;;;;5111682;28;20199;-57
2021/12/19 12:38:06;;;;;;;8.70;5.65;;;3.30;89.20;;;;;;5112956;28;20234;-59
2021/12/19 12:40:45;;;;;;;6.65;4.93;;;3.40;89.00;;;;;;5113026;28;20231;-57
2021/12/19 12:43:14;;;;;;;6.40;4.30;;;3.40;88.40;;;;;;5112583;28;20215;-57
2021/12/19 12:46:06;;;;;;;7.10;4.15;;;3.20;87.90;;;;;;5113017;28;20204;-58
2021/12/19 12:48:40;;;;;;;7.32;4.65;;;3.00;88.20;;;;;;5111406;28;20560;-58
2021/12/19 12:51:11;;;;;;;8.82;4.60;;;2.70;88.60;;;;;;5112966;28;20573;-60
2021/12/19 12:53:41;;;;;;;7.63;4.90;;;2.40;90.00;;;;;;5114507;28;20210;-59
2021/12/19 12:56:12;;;;;;;9.40;5.28;;;2.00;90.50;;;;;;5117015;28;20294;-60
2021/12/19 12:58:43;;;;;;;6.43;4.75;;;1.90;91.60;;;;;;5116932;28;20719;-59
2021/12/19 13:01:30;;;;;;;7.40;4.60;;;1.90;92.50;;;;;;5116831;28;20199;-58
2021/12/19 13:04:03;;;;;;;8.80;5.05;;;2.20;92.60;;;;;;5115311;28;20351;-58
2021/12/19 13:06:39;;;;;;;13.77;9.32;;;2.40;92.20;;;;;;5116672;28;20292;-57
2021/12/19 13:09:11;;;;;;;13.18;9.25;;;2.60;91.50;;;;;;5116527;28;20227;-57
2021/12/19 13:11:39;;;;;;;11.30;7.20;;;2.70;90.50;;;;;;5116522;28;20211;-58
2021/12/19 13:14:13;;;;;;;10.23;5.35;;;2.60;89.80;;;;;;5116592;27;20282;-57
2021/12/19 13:16:45;;;;;;;9.50;5.13;;;2.80;91.10;;;;;;5116322;28;20203;-57
2021/12/19 13:19:34;;;;;;;7.88;5.20;;;2.90;90.10;;;;;;5115111;28;20648;-58
2021/12/19 13:22:04;;;;;;;9.02;5.18;;;3.10;90.30;;;;;;5116578;28;20203;-57
2021/12/19 13:24:34;;;;;;;9.75;6.00;;;3.30;90.00;;;;;;5116308;28;20672;-57
2021/12/19 13:27:09;;;;;;;8.00;6.53;;;3.40;89.30;;;;;;5116134;28;20227;-59
2021/12/19 13:29:37;;;;;;;13.25;6.82;;;3.60;88.90;;;;;;5116191;28;20227;-57
2021/12/19 13:32:21;;;;;;;9.02;5.60;;;3.40;87.40;;;;;;5116132;28;20199;-57
2021/12/19 13:34:49;;;;;;;7.70;4.68;;;2.90;87.70;;;;;;5114766;28;20238;-59
2021/12/19 13:37:18;;;;;;;7.82;5.45;;;2.60;88.70;;;;;;5116107;28;20226;-58
2021/12/19 13:39:48;;;;;;;7.68;4.80;;;2.70;90.00;;;;;;5115993;28;20654;-57
2021/12/19 13:42:16;;;;;;;8.25;5.75;;;2.70;89.90;;;;;;5115775;28;20256;-58
2021/12/19 13:44:43;;;;;;;10.07;5.97;;;2.60;89.70;;;;;;5115937;28;20231;-59
2021/12/19 13:47:12;;;;;;;9.65;6.05;;;2.80;90.10;;;;;;5116163;28;20206;-58
2021/12/19 13:49:40;;;;;;;8.48;5.55;;;2.90;89.70;;;;;;5114512;28;20237;-57
2021/12/19 13:52:09;;;;;;;9.45;6.15;;;2.80;88.80;;;;;;5115617;28;20653;-58